Master Jet — 5BKD3 — position and weather

sailwx.info

Track history (hours):
 
Tides and Currents Weather Stations Pressure Air Temp Water Temp Dewpoint Dewpoint Depression Visibility Wind Speed Wind Dir Waves Ship Positions

Master Jet

Last reported at 2015-May-05 21:32 UTC. Time now 2015-May-05 22:22 UTC.
Position N 35°21' E 025°09'.

Length 74 m; draft 2.9 m.

Type: Ship. MMSI: 209349000.

Date/timePositionNaut miles runAvg speedWind from/ knotsBaromVisibWave heightAir tempDewpointWater temp
2015-May-05 21:32N 35°21' E 025°09'0 0.0
2015-May-05 19:23N 35°21' E 025°09'0 0.0
2015-May-05 15:31N 35°21' E 025°09'0 0.0
2015-May-05 14:33N 35°21' E 025°09'0 0.0
2015-May-05 13:33N 35°21' E 025°09'0 0.0
2015-May-05 12:33N 35°21' E 025°09'0 0.0
2015-May-05 11:28N 35°21' E 025°09'0 0.0
2015-May-05 10:14N 35°21' E 025°09'0 0.0
2015-May-05 08:29N 35°21' E 025°09'0 0.0
2015-May-05 07:31N 35°21' E 025°09'0 0.0
2015-May-05 06:31N 35°21' E 025°09'0 0.0
2015-May-05 05:33N 35°21' E 025°09'0 0.0
2015-May-05 04:26N 35°21' E 025°09'0 0.0
2015-May-05 03:32N 35°21' E 025°09'0 0.0
2015-May-05 02:29N 35°21' E 025°09'0 0.0
2015-May-05 01:31N 35°21' E 025°09'0 0.0
2015-May-05 00:33N 35°21' E 025°09'0 0.0
2015-May-04 23:19N 35°21' E 025°09'0 0.0
2015-May-04 22:33N 35°21' E 025°09'0 0.0
2015-May-04 21:24N 35°21' E 025°09'0 0.0
2015-May-04 20:32N 35°21' E 025°09'0 0.0
2015-May-04 19:29N 35°21' E 025°09'0 0.0
2015-May-04 18:33N 35°21' E 025°09'0 0.0
2015-May-04 17:31N 35°21' E 025°09'1111.0
2015-May-04 16:33N 35°31' E 025°11'3130.6
2015-May-04 15:33N 36°01' E 025°16'2322.5
2015-May-04 14:31N 36°23' E 025°26'4221.2
2015-May-04 12:34N 37°04' E 025°19'2323.1
2015-May-04 11:34N 37°28' E 025°19'1818.4
2015-May-04 10:34N 37°09' E 025°21'4522.1
2015-May-04 08:32N 36°25' E 025°19'9 9.4
2015-May-04 07:33N 36°15' E 025°19'2928.5
2015-May-04 06:33N 35°47' E 025°13'2726.0
2015-May-04 05:32N 35°21' E 025°09'0 0.3
2015-May-04 04:32N 35°21' E 025°09'0 0.0
2015-May-04 03:32N 35°21' E 025°09'0 0.0
2015-May-03 22:32N 35°21' E 025°09'0 0.0
2015-May-03 21:33N 35°21' E 025°09'0 0.0
2015-May-03 19:29N 35°21' E 025°09'0 0.0
2015-May-03 18:22N 35°21' E 025°09'0 0.0
2015-May-03 17:31N 35°21' E 025°09'2318.5
2015-May-03 16:17N 35°43' E 025°12'2229.4
2015-May-03 15:33N 36°04' E 025°17'2020.3
2015-May-03 14:33N 36°23' E 025°26'3225.6
2015-May-03 13:19N 36°54' E 025°16'1317.6
2015-May-03 12:33N 37°06' E 025°22'2221.6
2015-May-03 11:34N 37°28' E 025°19'2221.6
2015-May-03 10:34N 37°06' E 025°22'4321.5
2015-May-03 08:33N 36°23' E 025°23'10 9.6
2015-May-03 07:32N 36°14' E 025°18'2928.7
2015-May-03 06:31N 35°45' E 025°13'2525.3
2015-May-03 05:32N 35°21' E 025°09'0 0.1
2015-May-03 04:28N 35°21' E 025°09'0 0.0
2015-May-03 02:22N 35°21' E 025°09'0 0.0
2015-May-02 14:32N 35°21' E 025°09'0 0.0
2015-May-02 13:17N 35°21' E 025°09'0 0.0
2015-May-02 10:22N 35°21' E 025°09'0 0.0
2015-May-02 04:26N 35°21' E 025°09'0 0.0
2015-May-01 23:22N 35°21' E 025°09'0 0.0
2015-May-01 19:25N 35°21' E 025°09'0 0.0
2015-May-01 18:25N 35°21' E 025°09'0 0.0
2015-May-01 17:33N 35°21' E 025°09'1919.4
2015-May-01 16:33N 35°40' E 025°12'2929.0
2015-May-01 15:33N 36°08' E 025°18'1616.2
2015-May-01 14:33N 36°23' E 025°26'4321.6
2015-May-01 12:34N 37°06' E 025°22'2221.6
2015-May-01 11:33N 37°28' E 025°19'2221.6
2015-May-01 10:33N 37°06' E 025°22'4321.4
2015-May-01 08:33N 36°23' E 025°23'1010.2
2015-May-01 07:33N 36°14' E 025°18'2827.7
2015-May-01 06:32N 35°46' E 025°13'1 0.0
2015-Apr-30 16:12N 35°47' E 025°13'1827.6
2015-Apr-30 15:33N 36°04' E 025°17'2019.9
2015-Apr-30 14:32N 36°23' E 025°26'0 0.0
2015-Apr-30 13:33N 36°23' E 025°26'0 0.0
2015-Apr-30 12:33N 36°23' E 025°26'0 0.0
2015-Apr-30 11:33N 36°23' E 025°26'0 0.0
2015-Apr-30 10:33N 36°23' E 025°26'0 0.0
2015-Apr-30 09:32N 36°23' E 025°26'0 0.0
2015-Apr-30 08:33N 36°23' E 025°26'1212.2
2015-Apr-30 07:33N 36°13' E 025°18'2827.8
2015-Apr-30 06:33N 35°45' E 025°13'2523.6
2015-Apr-30 05:29N 35°21' E 025°09'0 0.0
2015-Apr-29 19:33N 35°21' E 025°09'0 0.0
2015-Apr-29 18:23N 35°21' E 025°09'2513.5
2015-Apr-29 16:33N 35°45' E 025°10'2726.6
2015-Apr-29 15:33N 36°12' E 025°14'1414.6
2015-Apr-29 14:33N 36°23' E 025°26'1712.7
2015-Apr-29 13:11N 36°41' E 025°25'1828.9
2015-Apr-29 12:33N 36°59' E 025°19'2828.7
2015-Apr-29 11:34N 37°27' E 025°18'1313.1
2015-Apr-29 10:34N 37°14' E 025°18'5125.4
2015-Apr-29 08:33N 36°23' E 025°26'1615.7
2015-Apr-29 07:32N 36°09' E 025°16'49 6.1
2015-Apr-28 23:29N 35°21' E 025°08'0 0.0
2015-Apr-28 22:30N 35°21' E 025°08'0 0.0
2015-Apr-28 21:33N 35°21' E 025°08'0 0.0
2015-Apr-28 16:32N 35°21' E 025°08'0 0.0
2015-Apr-28 09:20N 35°21' E 025°08'0 0.0
2015-Apr-28 08:12N 35°21' E 025°08'0 0.0
2015-Apr-28 06:12N 35°21' E 025°08'0 0.0
2015-Apr-28 05:31N 35°21' E 025°08'0 0.0
2015-Apr-28 04:16N 35°21' E 025°08'0 0.0
2015-Apr-28 03:31N 35°21' E 025°08'0 0.0
2015-Apr-28 02:29N 35°21' E 025°08'0 0.0
2015-Apr-28 01:27N 35°21' E 025°08'0 0.0
2015-Apr-28 00:32N 35°21' E 025°08'0 0.0
2015-Apr-27 23:32N 35°21' E 025°08'0 0.0
2015-Apr-27 22:33N 35°21' E 025°08'0 0.0
2015-Apr-27 21:10N 35°21' E 025°08'0 0.0
2015-Apr-27 20:29N 35°21' E 025°08'0 0.0
2015-Apr-27 19:31N 35°21' E 025°08'0 0.0
2015-Apr-27 18:31N 35°21' E 025°08'0 0.0
2015-Apr-27 17:33N 35°21' E 025°08'2423.0
2015-Apr-27 16:29N 35°45' E 025°12'2729.1
2015-Apr-27 15:33N 36°11' E 025°18'1313.4
2015-Apr-27 14:33N 36°23' E 025°26'0 0.0
2015-Apr-27 13:33N 36°23' E 025°26'0 0.0
2015-Apr-27 12:32N 36°23' E 025°26'0 0.0
2015-Apr-27 11:31N 36°23' E 025°26'0 0.0
2015-Apr-27 10:33N 36°23' E 025°26'0 0.0
2015-Apr-27 09:33N 36°23' E 025°26'0 0.0
2015-Apr-27 08:33N 36°23' E 025°26'1212.0
2015-Apr-27 07:34N 36°13' E 025°18'2928.7
2015-Apr-27 06:33N 35°45' E 025°13'2418.9
2015-Apr-27 05:16N 35°21' E 025°08'0 0.0
2015-Apr-27 04:32N 35°21' E 025°08'0 0.0
2015-Apr-27 01:28N 35°21' E 025°08'0 0.0
2015-Apr-27 00:29N 35°21' E 025°08'0 0.0
2015-Apr-26 23:33N 35°21' E 025°08'0 0.0
2015-Apr-26 22:24N 35°21' E 025°08'0 0.0
2015-Apr-26 21:33N 35°21' E 025°08'0 0.0
2015-Apr-26 20:34N 35°21' E 025°08'0 0.0
2015-Apr-26 19:28N 35°21' E 025°08'0 0.0
2015-Apr-26 18:33N 35°21' E 025°08'3815.4
2015-Apr-26 16:04N 35°58' E 025°16'1528.1
2015-Apr-26 15:33N 36°13' E 025°19'1211.6
2015-Apr-26 14:33N 36°23' E 025°26'0 0.0
2015-Apr-26 13:32N 36°23' E 025°26'0 0.0
2015-Apr-26 12:33N 36°23' E 025°26'0 0.0
2015-Apr-26 11:32N 36°23' E 025°26'0 0.0
2015-Apr-26 10:33N 36°23' E 025°26'0 0.0
2015-Apr-26 09:29N 36°23' E 025°26'6 6.6
2015-Apr-26 08:33N 36°20' E 025°19'2222.0
2015-Apr-26 07:32N 35°59' E 025°10'  
Track history (hours):
 
Tides and Currents Weather Stations Pressure Air Temp Water Temp Dewpoint Dewpoint Depression Visibility Wind Speed Wind Dir Waves Ship Positions

Master Jet

Last reported at 2015-May-05 21:32 UTC. Time now 2015-May-05 22:22 UTC.
Position N 35°21' E 025°09'.

Length 74 m; draft 2.9 m.

Type: Ship. MMSI: 209349000.

Date/timePositionNaut miles runAvg speedWind from/ knotsBaromVisibWave heightAir tempDewpointWater temp
2015-May-05 21:32N 35°21' E 025°09'0 0.0
2015-May-05 19:23N 35°21' E 025°09'0 0.0
2015-May-05 15:31N 35°21' E 025°09'0 0.0
2015-May-05 14:33N 35°21' E 025°09'0 0.0
2015-May-05 13:33N 35°21' E 025°09'0 0.0
2015-May-05 12:33N 35°21' E 025°09'0 0.0
2015-May-05 11:28N 35°21' E 025°09'0 0.0
2015-May-05 10:14N 35°21' E 025°09'0 0.0
2015-May-05 08:29N 35°21' E 025°09'0 0.0
2015-May-05 07:31N 35°21' E 025°09'0 0.0
2015-May-05 06:31N 35°21' E 025°09'0 0.0
2015-May-05 05:33N 35°21' E 025°09'0 0.0
2015-May-05 04:26N 35°21' E 025°09'0 0.0
2015-May-05 03:32N 35°21' E 025°09'0 0.0
2015-May-05 02:29N 35°21' E 025°09'0 0.0
2015-May-05 01:31N 35°21' E 025°09'0 0.0
2015-May-05 00:33N 35°21' E 025°09'0 0.0
2015-May-04 23:19N 35°21' E 025°09'0 0.0
2015-May-04 22:33N 35°21' E 025°09'0 0.0
2015-May-04 21:24N 35°21' E 025°09'0 0.0
2015-May-04 20:32N 35°21' E 025°09'0 0.0
2015-May-04 19:29N 35°21' E 025°09'0 0.0
2015-May-04 18:33N 35°21' E 025°09'0 0.0
2015-May-04 17:31N 35°21' E 025°09'1111.0
2015-May-04 16:33N 35°31' E 025°11'3130.6
2015-May-04 15:33N 36°01' E 025°16'2322.5
2015-May-04 14:31N 36°23' E 025°26'4221.2
2015-May-04 12:34N 37°04' E 025°19'2323.1
2015-May-04 11:34N 37°28' E 025°19'1818.4
2015-May-04 10:34N 37°09' E 025°21'4522.1
2015-May-04 08:32N 36°25' E 025°19'9 9.4
2015-May-04 07:33N 36°15' E 025°19'2928.5
2015-May-04 06:33N 35°47' E 025°13'2726.0
2015-May-04 05:32N 35°21' E 025°09'0 0.3
2015-May-04 04:32N 35°21' E 025°09'0 0.0
2015-May-04 03:32N 35°21' E 025°09'0 0.0
2015-May-03 22:32N 35°21' E 025°09'0 0.0
2015-May-03 21:33N 35°21' E 025°09'0 0.0
2015-May-03 19:29N 35°21' E 025°09'0 0.0
2015-May-03 18:22N 35°21' E 025°09'0 0.0
2015-May-03 17:31N 35°21' E 025°09'2318.5
2015-May-03 16:17N 35°43' E 025°12'2229.4
2015-May-03 15:33N 36°04' E 025°17'2020.3
2015-May-03 14:33N 36°23' E 025°26'3225.6
2015-May-03 13:19N 36°54' E 025°16'1317.6
2015-May-03 12:33N 37°06' E 025°22'2221.6
2015-May-03 11:34N 37°28' E 025°19'2221.6
2015-May-03 10:34N 37°06' E 025°22'4321.5
2015-May-03 08:33N 36°23' E 025°23'10 9.6
2015-May-03 07:32N 36°14' E 025°18'2928.7
2015-May-03 06:31N 35°45' E 025°13'2525.3
2015-May-03 05:32N 35°21' E 025°09'0 0.1
2015-May-03 04:28N 35°21' E 025°09'0 0.0
2015-May-03 02:22N 35°21' E 025°09'0 0.0
2015-May-02 14:32N 35°21' E 025°09'0 0.0
2015-May-02 13:17N 35°21' E 025°09'0 0.0
2015-May-02 10:22N 35°21' E 025°09'0 0.0
2015-May-02 04:26N 35°21' E 025°09'0 0.0
2015-May-01 23:22N 35°21' E 025°09'0 0.0
2015-May-01 19:25N 35°21' E 025°09'0 0.0
2015-May-01 18:25N 35°21' E 025°09'0 0.0
2015-May-01 17:33N 35°21' E 025°09'1919.4
2015-May-01 16:33N 35°40' E 025°12'2929.0
2015-May-01 15:33N 36°08' E 025°18'1616.2
2015-May-01 14:33N 36°23' E 025°26'4321.6
2015-May-01 12:34N 37°06' E 025°22'2221.6
2015-May-01 11:33N 37°28' E 025°19'2221.6
2015-May-01 10:33N 37°06' E 025°22'4321.4
2015-May-01 08:33N 36°23' E 025°23'1010.2
2015-May-01 07:33N 36°14' E 025°18'2827.7
2015-May-01 06:32N 35°46' E 025°13'1 0.0
2015-Apr-30 16:12N 35°47' E 025°13'1827.6
2015-Apr-30 15:33N 36°04' E 025°17'2019.9
2015-Apr-30 14:32N 36°23' E 025°26'0 0.0
2015-Apr-30 13:33N 36°23' E 025°26'0 0.0
2015-Apr-30 12:33N 36°23' E 025°26'0 0.0
2015-Apr-30 11:33N 36°23' E 025°26'0 0.0
2015-Apr-30 10:33N 36°23' E 025°26'0 0.0
2015-Apr-30 09:32N 36°23' E 025°26'0 0.0
2015-Apr-30 08:33N 36°23' E 025°26'1212.2
2015-Apr-30 07:33N 36°13' E 025°18'2827.8
2015-Apr-30 06:33N 35°45' E 025°13'2523.6
2015-Apr-30 05:29N 35°21' E 025°09'0 0.0
2015-Apr-29 19:33N 35°21' E 025°09'0 0.0
2015-Apr-29 18:23N 35°21' E 025°09'2513.5
2015-Apr-29 16:33N 35°45' E 025°10'2726.6
2015-Apr-29 15:33N 36°12' E 025°14'1414.6
2015-Apr-29 14:33N 36°23' E 025°26'1712.7
2015-Apr-29 13:11N 36°41' E 025°25'1828.9
2015-Apr-29 12:33N 36°59' E 025°19'2828.7
2015-Apr-29 11:34N 37°27' E 025°18'1313.1
2015-Apr-29 10:34N 37°14' E 025°18'5125.4
2015-Apr-29 08:33N 36°23' E 025°26'1615.7
2015-Apr-29 07:32N 36°09' E 025°16'49 6.1
2015-Apr-28 23:29N 35°21' E 025°08'0 0.0
2015-Apr-28 22:30N 35°21' E 025°08'0 0.0
2015-Apr-28 21:33N 35°21' E 025°08'0 0.0
2015-Apr-28 16:32N 35°21' E 025°08'0 0.0
2015-Apr-28 09:20N 35°21' E 025°08'0 0.0
2015-Apr-28 08:12N 35°21' E 025°08'0 0.0
2015-Apr-28 06:12N 35°21' E 025°08'0 0.0
2015-Apr-28 05:31N 35°21' E 025°08'0 0.0
2015-Apr-28 04:16N 35°21' E 025°08'0 0.0
2015-Apr-28 03:31N 35°21' E 025°08'0 0.0
2015-Apr-28 02:29N 35°21' E 025°08'0 0.0
2015-Apr-28 01:27N 35°21' E 025°08'0 0.0
2015-Apr-28 00:32N 35°21' E 025°08'0 0.0
2015-Apr-27 23:32N 35°21' E 025°08'0 0.0
2015-Apr-27 22:33N 35°21' E 025°08'0 0.0
2015-Apr-27 21:10N 35°21' E 025°08'0 0.0
2015-Apr-27 20:29N 35°21' E 025°08'0 0.0
2015-Apr-27 19:31N 35°21' E 025°08'0 0.0
2015-Apr-27 18:31N 35°21' E 025°08'0 0.0
2015-Apr-27 17:33N 35°21' E 025°08'2423.0
2015-Apr-27 16:29N 35°45' E 025°12'2729.1
2015-Apr-27 15:33N 36°11' E 025°18'1313.4
2015-Apr-27 14:33N 36°23' E 025°26'0 0.0
2015-Apr-27 13:33N 36°23' E 025°26'0 0.0
2015-Apr-27 12:32N 36°23' E 025°26'0 0.0
2015-Apr-27 11:31N 36°23' E 025°26'0 0.0
2015-Apr-27 10:33N 36°23' E 025°26'0 0.0
2015-Apr-27 09:33N 36°23' E 025°26'0 0.0
2015-Apr-27 08:33N 36°23' E 025°26'1212.0
2015-Apr-27 07:34N 36°13' E 025°18'2928.7
2015-Apr-27 06:33N 35°45' E 025°13'2418.9
2015-Apr-27 05:16N 35°21' E 025°08'0 0.0
2015-Apr-27 04:32N 35°21' E 025°08'0 0.0
2015-Apr-27 01:28N 35°21' E 025°08'0 0.0
2015-Apr-27 00:29N 35°21' E 025°08'0 0.0
2015-Apr-26 23:33N 35°21' E 025°08'0 0.0
2015-Apr-26 22:24N 35°21' E 025°08'0 0.0
2015-Apr-26 21:33N 35°21' E 025°08'0 0.0
2015-Apr-26 20:34N 35°21' E 025°08'0 0.0
2015-Apr-26 19:28N 35°21' E 025°08'0 0.0
2015-Apr-26 18:33N 35°21' E 025°08'3815.4
2015-Apr-26 16:04N 35°58' E 025°16'1528.1
2015-Apr-26 15:33N 36°13' E 025°19'1211.6
2015-Apr-26 14:33N 36°23' E 025°26'0 0.0
2015-Apr-26 13:32N 36°23' E 025°26'0 0.0
2015-Apr-26 12:33N 36°23' E 025°26'0 0.0
2015-Apr-26 11:32N 36°23' E 025°26'0 0.0
2015-Apr-26 10:33N 36°23' E 025°26'0 0.0
2015-Apr-26 09:29N 36°23' E 025°26'6 6.6
2015-Apr-26 08:33N 36°20' E 025°19'2222.0
2015-Apr-26 07:32N 35°59' E 025°10'  

Dump ship's entire track history